Time;durP1;ratioP1;P1;durP2;ratioP2;P2;SDS_P1;SDS_P2;PMS_P1;PMS_P2;Temp;Humidity;BMP_temperature;BMP_pressure;BME280_temperature;BME280_humidity;BME280_pressure;Samples;Min_cycle;Max_cycle;Signal;HPM_P1;HPM_P2
2022/09/19 16:27:49;;;;;;;;;1.67;1.00;;;;;20.59;33.21;101704.16;5265599;22;45542;-73
2022/09/19 16:30:14;;;;;;;;;2.67;2.00;;;;;20.32;33.18;101676.97;5036985;28;46263;-73
2022/09/19 16:32:41;;;;;;;;;2.00;1.00;;;;;20.35;33.13;101690.56;5039067;28;45866;-72
2022/09/19 16:35:18;;;;;;;;;9.33;6.33;;;;;20.25;33.17;101684.22;5043697;28;45726;-74
2022/09/19 16:37:43;;;;;;;;;1.67;1.67;;;;;20.34;33.55;101705.94;5046738;28;45435;-71
2022/09/19 16:40:26;;;;;;;;;1.00;1.00;;;;;20.26;33.20;101707.75;5044630;28;45694;-68
2022/09/19 16:42:52;;;;;;;;;3.00;2.00;;;;;20.02;33.69;101681.47;5045833;28;45989;-70
2022/09/19 16:45:20;;;;;;;;;3.00;1.67;;;;;20.13;32.94;101714.94;5032220;28;45567;-71
2022/09/19 16:47:46;;;;;;;;;0.67;0.67;;;;;20.04;33.61;101702.25;5043262;28;46524;-74
2022/09/19 16:50:13;;;;;;;;;11.33;9.00;;;;;20.03;33.86;101713.13;5039221;28;45499;-73
2022/09/19 16:52:42;;;;;;;;;5.67;2.67;;;;;19.80;34.04;101677.75;5035497;28;45651;-70
2022/09/19 16:55:38;;;;;;;;;9.00;4.00;;;;;19.97;34.26;101713.09;5038272;28;45841;-71
2022/09/19 16:58:09;;;;;;;;;2.00;0.33;;;;;19.90;34.04;101712.19;5044411;28;45848;-71
2022/09/19 17:00:34;;;;;;;;;3.67;2.33;;;;;19.76;34.35;101687.69;5045575;28;46166;-72
2022/09/19 17:03:00;;;;;;;;;1.00;1.00;;;;;19.83;34.46;101705.81;5045682;28;45443;-71
2022/09/19 17:05:30;;;;;;;;;6.33;6.00;;;;;19.80;34.72;101702.16;5045064;28;52911;-75
2022/09/19 17:07:56;;;;;;;;;2.00;2.00;;;;;19.27;35.01;101623.34;5049243;28;45590;-72
2022/09/19 17:10:24;;;;;;;;;3.00;3.00;;;;;19.65;35.02;101690.34;5055639;28;46116;-69
2022/09/19 17:12:50;;;;;;;;;41.25;32.00;;;;;19.68;34.89;101712.06;5061740;28;45254;-73
2022/09/19 17:15:43;;;;;;;;;11.00;8.67;;;;;19.65;35.25;101711.13;5050881;28;45393;-71
2022/09/19 17:18:09;;;;;;;;;4.00;4.00;;;;;19.64;35.44;101712.94;5052139;28;45284;-75
2022/09/19 17:20:40;;;;;;;;;9.00;8.67;;;;;19.49;35.36;101699.31;5052213;28;46230;-71
2022/09/19 17:23:07;;;;;;;;;1.00;1.00;;;;;19.03;35.12;101628.66;5052116;28;45360;-70
2022/09/19 17:25:52;;;;;;;;;1.67;0.00;;;;;19.50;35.08;101726.44;5052408;28;45379;-75
2022/09/19 17:28:18;;;;;;;;;4.67;2.00;;;;;19.36;35.41;101708.28;5052667;28;45440;-73
2022/09/19 17:30:45;;;;;;;;;7.00;5.33;;;;;19.46;35.57;101732.72;5052408;28;45471;-74
2022/09/19 17:33:12;;;;;;;;;3.33;3.33;;;;;19.43;35.56;101735.41;5053233;28;45333;-76
2022/09/19 17:35:39;;;;;;;;;1.33;1.33;;;;;19.39;35.75;101730.88;5052792;28;45611;-77
2022/09/19 17:38:04;;;;;;;;;3.00;3.00;;;;;19.38;35.89;101739.00;5052527;28;45325;-71
2022/09/19 17:40:33;;;;;;;;;5.33;3.67;;;;;19.33;35.93;101744.38;5052540;28;45514;-70
2022/09/19 17:43:01;;;;;;;;;10.00;6.67;;;;;19.30;36.22;101738.94;5053906;28;45534;-69
2022/09/19 17:45:27;;;;;;;;;10.33;7.67;;;;;19.23;36.08;101735.28;5055544;28;45492;-71
2022/09/19 17:47:52;;;;;;;;;4.00;4.00;;;;;19.23;36.29;101739.81;5056028;28;45380;-76
2022/09/19 17:50:17;;;;;;;;;31.00;27.25;;;;;19.11;36.43;101733.41;5057737;28;45374;-74
2022/09/19 17:52:43;;;;;;;;;4.67;4.00;;;;;19.09;36.57;101737.94;5058643;28;57252;-75
2022/09/19 17:55:08;;;;;;;;;14.33;7.33;;;;;18.95;36.20;101718.84;5059485;28;45742;-72
2022/09/19 17:57:34;;;;;;;;;1.33;1.33;;;;;19.11;36.31;101748.78;5060138;28;45339;-71
2022/09/19 17:59:59;;;;;;;;;4.67;2.33;;;;;19.05;36.15;101754.13;5058309;28;46447;-74
2022/09/19 18:05:09;;;;;;;;;3.00;2.33;;;;;19.02;36.20;101752.28;5055858;28;45735;-75
2022/09/19 18:07:35;;;;;;;;;5.00;4.00;;;;;18.99;36.38;101754.09;5055777;28;45546;-70
2022/09/19 18:10:00;;;;;;;;;13.33;11.00;;;;;18.94;36.40;101754.97;5055516;28;45638;-70
2022/09/19 18:12:26;;;;;;;;;3.00;3.00;;;;;18.88;36.68;101749.50;5055813;28;45346;-70
2022/09/19 18:14:51;;;;;;;;;6.00;2.33;;;;;18.91;36.64;101754.94;5055833;28;45423;-77
2022/09/19 18:17:19;;;;;;;;;5.00;5.00;;;;;18.83;36.86;101745.84;5055297;28;51126;-75
2022/09/19 18:19:44;;;;;;;;;1.67;1.67;;;;;18.87;36.59;101760.31;5055462;28;47387;-76
2022/09/19 18:22:10;;;;;;;;;2.00;2.00;;;;;18.75;36.93;101739.44;5055947;28;45269;-70
2022/09/19 18:24:36;;;;;;;;;12.33;11.00;;;;;18.69;36.84;101725.84;5054925;28;54732;-72
2022/09/19 18:27:01;;;;;;;;;12.00;4.00;;;;;18.58;37.08;101721.25;5055933;28;45417;-73
2022/09/19 18:29:29;;;;;;;;;4.33;4.33;;;;;18.79;37.11;101760.19;5054813;28;46031;-70
2022/09/19 18:31:54;;;;;;;;;26.50;20.75;;;;;18.77;37.23;101759.28;5055273;28;45359;-75
2022/09/19 18:34:21;;;;;;;;;4.00;4.00;;;;;18.75;37.42;101764.69;5054755;28;56538;-70
2022/09/19 18:36:46;;;;;;;;;4.00;4.00;;;;;18.45;37.26;101711.19;5055516;28;45374;-75
2022/09/19 18:39:12;;;;;;;;;5.67;4.00;;;;;18.71;37.31;101767.34;5055281;28;45606;-73
2022/09/19 18:41:37;;;;;;;;;7.00;4.00;;;;;18.68;37.06;101770.06;5054895;28;45591;-75
2022/09/19 18:44:03;;;;;;;;;6.00;5.00;;;;;18.54;37.24;101749.16;5055544;28;45437;-72
2022/09/19 18:46:28;;;;;;;;;15.50;14.25;;;;;18.61;37.44;101769.09;5055270;28;45526;-71
2022/09/19 18:48:57;;;;;;;;;8.67;6.33;;;;;18.60;37.18;101789.81;5054781;28;46011;-73
2022/09/19 18:51:25;;;;;;;;;7.33;4.67;;;;;18.55;37.42;101785.25;5055059;28;45525;-70
2022/09/19 18:53:53;;;;;;;;;7.00;6.00;;;;;18.53;37.50;101779.84;5054082;28;45303;-76
2022/09/19 18:56:19;;;;;;;;;3.33;2.00;;;;;18.38;37.42;101769.75;5055054;28;45436;-70
2022/09/19 18:58:49;;;;;;;;;3.00;3.00;;;;;18.47;37.72;101785.19;5054161;28;45295;-71
2022/09/19 19:01:16;;;;;;;;;4.00;2.00;;;;;18.46;37.96;101788.75;5054692;28;45429;-72
2022/09/19 19:03:48;;;;;;;;;0.00;0.00;;;;;18.39;37.74;101786.88;5054924;28;45523;-70
2022/09/19 19:06:14;;;;;;;;;3.00;2.00;;;;;18.20;37.95;101759.66;5055297;28;45520;-72
2022/09/19 19:08:42;;;;;;;;;3.33;3.33;;;;;18.32;38.22;101794.03;5054679;28;45939;-71
2022/09/19 19:11:10;;;;;;;;;2.33;2.33;;;;;18.31;38.35;101804.84;5054730;28;45398;-73
2022/09/19 19:13:38;;;;;;;;;4.00;3.00;;;;;18.22;38.70;101793.03;5054877;28;45432;-75
2022/09/19 19:16:15;;;;;;;;;3.00;2.00;;;;;18.11;38.43;101786.56;5055160;28;45157;-73
2022/09/19 19:18:49;;;;;;;;;3.67;3.67;;;;;18.18;38.71;101799.31;5054695;28;46482;-76
2022/09/19 19:21:18;;;;;;;;;3.00;1.67;;;;;18.21;38.60;101812.88;5054998;28;45389;-75
2022/09/19 19:23:44;;;;;;;;;2.00;2.00;;;;;18.17;38.88;101808.28;5054980;28;45414;-69
2022/09/19 19:26:09;;;;;;;;;1.00;1.00;;;;;17.97;38.98;101788.22;5054592;28;45400;-71
2022/09/19 19:28:35;;;;;;;;;2.33;2.00;;;;;18.12;39.05;101811.84;5055221;28;46028;-73
2022/09/19 19:31:01;;;;;;;;;5.00;3.00;;;;;18.09;38.85;101815.41;5055502;28;45469;-72
2022/09/19 19:33:27;;;;;;;;;3.00;3.00;;;;;17.98;38.88;101801.75;5056026;28;45539;-71
2022/09/19 19:36:09;;;;;;;;;3.00;3.00;;;;;17.93;38.90;101798.06;5055389;28;45405;-70
2022/09/19 19:38:39;;;;;;;;;2.33;1.00;;;;;17.97;39.21;101809.84;5054158;28;45467;-72
2022/09/19 19:41:05;;;;;;;;;1.00;1.00;;;;;17.87;39.34;101806.13;5054037;28;45414;-74
2022/09/19 19:43:32;;;;;;;;;0.33;0.33;;;;;17.83;39.29;101818.63;5054547;28;45521;-75
2022/09/19 19:46:01;;;;;;;;;1.67;1.33;;;;;17.85;39.34;101833.09;5054595;28;45508;-73
2022/09/19 19:48:31;;;;;;;;;3.00;1.33;;;;;17.74;39.29;101812.22;5053996;28;45507;-68
2022/09/19 19:51:00;;;;;;;;;2.33;1.00;;;;;17.79;39.75;101824.91;5054343;28;45604;-76
2022/09/19 19:53:26;;;;;;;;;3.00;1.00;;;;;17.83;39.97;101829.44;5054159;28;45481;-72
2022/09/19 19:55:59;;;;;;;;;2.33;1.67;;;;;17.84;39.42;101833.97;5054550;28;45459;-78
2022/09/19 19:58:25;;;;;;;;;3.67;2.00;;;;;17.66;39.95;101804.00;5054383;28;46111;-72
2022/09/19 20:00:57;;;;;;;;;2.33;1.00;;;;;17.79;39.64;101841.13;5054395;28;45737;-73
2022/09/19 20:03:22;;;;;;;;;2.67;1.67;;;;;17.76;39.59;101838.38;5054577;28;45384;-71
2022/09/19 20:05:48;;;;;;;;;1.33;1.33;;;;;17.74;39.75;101834.75;5054251;28;45413;-76
2022/09/19 20:08:15;;;;;;;;;2.67;1.67;;;;;17.73;40.04;101840.13;5054234;28;45735;-72
2022/09/19 20:10:41;;;;;;;;;6.67;3.33;;;;;17.69;40.54;101839.16;5053971;28;45281;-70
2022/09/19 20:13:06;;;;;;;;;6.00;3.00;;;;;17.71;39.85;101836.50;5052526;28;45444;-71
2022/09/19 20:15:31;;;;;;;;;5.33;5.33;;;;;17.56;40.19;101823.66;5053808;28;45408;-67
2022/09/19 20:17:57;;;;;;;;;7.67;7.33;;;;;17.67;40.58;101841.84;5053372;28;62897;-74
2022/09/19 20:20:22;;;;;;;;;6.00;4.00;;;;;17.58;40.31;101828.19;5053746;28;60352;-76
2022/09/19 20:22:49;;;;;;;;;3.00;2.33;;;;;17.47;40.36;101824.41;5053738;28;45541;-73
2022/09/19 20:25:19;;;;;;;;;6.67;4.00;;;;;17.19;40.30;101782.56;5054255;28;45474;-68
2022/09/19 20:27:44;;;;;;;;;3.00;1.67;;;;;17.47;40.53;101829.81;5053485;28;46935;-71
2022/09/19 20:30:10;;;;;;;;;3.00;3.00;;;;;17.58;40.58;101848.91;5069016;28;45461;-72
2022/09/19 20:32:36;;;;;;;;;4.00;4.00;;;;;17.56;40.53;101845.28;5053243;28;45369;-71
2022/09/19 20:35:01;;;;;;;;;2.00;1.00;;;;;17.35;41.13;101808.94;5053613;28;45596;-73
2022/09/19 20:37:27;;;;;;;;;3.00;1.67;;;;;17.46;41.43;101833.41;5053201;28;55721;-74
2022/09/19 20:39:53;;;;;;;;;4.33;3.67;;;;;17.48;40.57;101845.16;5053774;28;45435;-76
2022/09/19 20:42:19;;;;;;;;;5.00;5.00;;;;;17.49;41.39;101853.28;5053326;28;45460;-68
2022/09/19 20:44:44;;;;;;;;;18.75;17.50;;;;;17.48;41.42;101851.47;5053362;28;45367;-69
2022/09/19 20:47:10;;;;;;;;;1.00;0.67;;;;;17.45;41.40;101853.22;5068547;28;48303;-66
2022/09/19 20:49:35;;;;;;;;;10.67;7.33;;;;;17.45;41.43;101864.00;5053076;28;45356;-70
2022/09/19 20:52:02;;;;;;;;;4.00;4.00;;;;;17.44;41.68;101859.47;5053242;28;45408;-73
2022/09/19 20:54:28;;;;;;;;;3.33;2.00;;;;;17.43;41.32;101866.69;5054100;28;45497;-68
2022/09/19 20:56:53;;;;;;;;;8.33;3.67;;;;;17.40;42.02;101855.84;5053356;28;45605;-68
2022/09/19 20:59:20;;;;;;;;;4.33;3.67;;;;;17.21;41.69;101832.09;5053568;28;45641;-75
2022/09/19 21:01:46;;;;;;;;;3.00;3.00;;;;;17.25;41.59;101843.00;5053508;28;45408;-69
2022/09/19 21:04:11;;;;;;;;;1.33;1.33;;;;;17.28;41.82;101858.34;5053874;28;45468;-71
2022/09/19 21:06:36;;;;;;;;;9.00;2.00;;;;;17.35;42.04;101871.06;5054444;28;46511;-68
2022/09/19 21:09:02;;;;;;;;;7.33;1.00;;;;;17.22;41.82;101850.13;5053806;28;45358;-74
2022/09/19 21:11:28;;;;;;;;;3.00;1.33;;;;;17.33;41.73;101880.03;5054557;28;45321;-71
2022/09/19 21:13:55;;;;;;;;;8.67;7.33;;;;;17.30;41.91;101870.97;5053843;28;45475;-69
2022/09/19 21:16:23;;;;;;;;;5.00;3.00;;;;;17.29;42.39;101876.34;5052908;28;45417;-70
2022/09/19 21:18:50;;;;;;;;;2.00;2.00;;;;;17.27;42.06;101873.66;5055390;28;45491;-71
2022/09/19 21:21:18;;;;;;;;;4.00;2.33;;;;;17.26;42.31;101873.63;5056507;28;45520;-68
2022/09/19 21:23:44;;;;;;;;;11.67;9.00;;;;;17.10;42.19;101845.44;5056895;28;45428;-70
2022/09/19 21:26:14;;;;;;;;;4.00;3.00;;;;;17.01;42.44;101835.41;5056051;28;45509;-70
2022/09/19 21:28:40;;;;;;;;;3.33;2.00;;;;;17.17;42.52;101863.56;5056449;28;45570;-70
2022/09/19 21:31:08;;;;;;;;;3.00;1.33;;;;;17.06;42.62;101849.88;5056198;28;45309;-69
2022/09/19 21:33:34;;;;;;;;;3.00;3.00;;;;;17.01;42.65;101847.97;5057071;28;45940;-67
2022/09/19 21:36:01;;;;;;;;;3.33;3.00;;;;;17.04;42.83;101856.13;5055603;28;67317;-77
2022/09/19 21:38:28;;;;;;;;;2.00;2.00;;;;;17.12;42.51;101876.97;5055828;28;45450;-70
2022/09/19 21:40:58;;;;;;;;;8.00;8.00;;;;;17.06;42.95;101874.19;5056337;28;45362;-74
2022/09/19 21:43:26;;;;;;;;;6.33;4.00;;;;;17.06;42.99;101874.19;5056469;28;45308;-71
2022/09/19 21:46:05;;;;;;;;;5.33;4.00;;;;;17.07;42.93;101886.78;5056139;28;45424;-69
2022/09/19 21:48:32;;;;;;;;;3.33;3.33;;;;;17.07;43.02;101880.50;5056365;28;45456;-71
2022/09/19 21:50:58;;;;;;;;;5.00;2.67;;;;;16.99;42.77;101879.44;5056325;28;45630;-69
2022/09/19 21:53:24;;;;;;;;;6.33;3.67;;;;;16.95;42.82;101870.38;5056602;28;45481;-68
2022/09/19 21:55:54;;;;;;;;;3.00;3.00;;;;;16.88;43.18;101860.38;5055830;28;46606;-68
2022/09/19 21:58:20;;;;;;;;;3.00;2.00;;;;;16.94;43.13;101880.28;5056088;28;45386;-73
2022/09/19 22:00:46;;;;;;;;;3.00;1.67;;;;;16.66;43.34;101835.63;5056128;28;45482;-68
2022/09/19 22:03:12;;;;;;;;;3.67;2.00;;;;;16.91;43.24;101879.28;5056619;28;45546;-68
2022/09/19 22:05:38;;;;;;;;;3.67;1.00;;;;;16.97;43.07;101890.22;5071686;28;47353;-67
2022/09/19 22:08:03;;;;;;;;;3.67;2.00;;;;;16.90;43.57;101891.00;5055733;28;54617;-73
2022/09/19 22:10:28;;;;;;;;;2.00;2.00;;;;;16.78;43.78;101880.84;5054658;28;46416;-73
2022/09/19 22:12:54;;;;;;;;;2.00;2.00;;;;;16.81;43.70;101888.97;5056346;28;45504;-73
2022/09/19 22:15:19;;;;;;;;;2.67;2.67;;;;;16.88;43.87;101900.84;5056005;28;57353;-74
2022/09/19 22:17:44;;;;;;;;;1.00;1.00;;;;;16.70;43.52;101880.69;5055508;28;55838;-68
2022/09/19 22:20:10;;;;;;;;;1.67;1.67;;;;;16.83;43.53;101902.50;5055400;28;58703;-70
2022/09/19 22:22:35;;;;;;;;;1.67;1.00;;;;;16.80;43.56;101900.66;5056363;28;45403;-68
2022/09/19 22:25:00;;;;;;;;;1.67;1.67;;;;;16.59;44.23;101872.38;5055230;28;62095;-70
2022/09/19 22:27:25;;;;;;;;;1.33;1.00;;;;;16.72;44.04;101908.59;5054903;28;59635;-70
2022/09/19 22:29:51;;;;;;;;;1.33;1.33;;;;;16.68;44.23;101901.34;5055615;28;50352;-73
2022/09/19 22:32:17;;;;;;;;;3.67;1.67;;;;;16.72;44.48;101921.19;5056079;28;45512;-72
2022/09/19 22:34:42;;;;;;;;;2.67;2.67;;;;;16.66;44.32;101902.16;5055580;28;50170;-68
2022/09/19 22:37:08;;;;;;;;;1.67;0.67;;;;;16.69;44.47;101916.63;5055793;28;49375;-71
2022/09/19 22:39:33;;;;;;;;;2.00;1.00;;;;;16.71;44.39;101916.66;5055918;28;45347;-70
2022/09/19 22:41:58;;;;;;;;;2.00;2.00;;;;;16.71;44.42;101916.66;5071456;28;45494;-72
2022/09/19 22:44:24;;;;;;;;;1.00;1.00;;;;;16.68;44.42;101919.28;5056779;28;64916;-71
2022/09/19 22:46:50;;;;;;;;;1.00;1.00;;;;;16.40;44.48;101875.59;5057081;28;45494;-68
2022/09/19 22:49:15;;;;;;;;;2.67;1.67;;;;;16.61;44.23;101925.47;5058036;28;45545;-73
2022/09/19 22:51:40;;;;;;;;;6.67;4.00;;;;;16.61;44.04;101920.06;5056608;28;46623;-68
2022/09/19 22:54:06;;;;;;;;;2.67;2.67;;;;;16.47;44.71;101904.50;5052409;28;46151;-68
2022/09/19 22:56:31;;;;;;;;;0.00;0.00;;;;;16.57;44.06;101922.69;5055556;28;45318;-68
2022/09/19 22:58:57;;;;;;;;;0.33;0.33;;;;;16.50;44.46;101923.47;5055173;28;45412;-73
2022/09/19 23:01:26;;;;;;;;;1.00;1.00;;;;;16.54;44.80;101919.94;5056055;28;45645;-72
2022/09/19 23:03:55;;;;;;;;;3.00;1.33;;;;;16.53;44.44;101926.22;5055010;28;46338;-72
2022/09/19 23:06:23;;;;;;;;;1.67;1.67;;;;;16.42;44.73;101908.91;5055504;28;45460;-71
2022/09/19 23:08:50;;;;;;;;;2.33;1.67;;;;;16.11;44.47;101850.72;5055523;28;45449;-72
2022/09/19 23:11:16;;;;;;;;;2.00;2.00;;;;;16.51;44.39;101918.97;5055409;28;45548;-74
2022/09/19 23:13:48;;;;;;;;;2.33;1.33;;;;;16.43;44.80;101901.72;5055093;28;46190;-68
2022/09/19 23:16:18;;;;;;;;;5.67;4.67;;;;;16.49;44.95;101918.03;5054620;28;45507;-72
2022/09/19 23:18:44;;;;;;;;;4.00;4.00;;;;;16.47;45.00;101920.69;5055179;28;45396;-69
2022/09/19 23:21:09;;;;;;;;;3.33;2.33;;;;;16.25;44.62;101876.19;5055148;28;45275;-71
2022/09/19 23:23:35;;;;;;;;;2.00;2.00;;;;;16.31;44.85;101889.78;5054526;28;52421;-72
2022/09/19 23:26:02;;;;;;;;;3.33;3.33;;;;;16.49;45.11;101923.44;5054923;28;45291;-73
2022/09/19 23:28:27;;;;;;;;;3.67;2.00;;;;;16.48;44.85;101918.91;5055055;28;45439;-70
2022/09/19 23:30:52;;;;;;;;;5.33;3.00;;;;;16.48;44.63;101918.91;5054303;28;51124;-69
2022/09/19 23:33:18;;;;;;;;;1.00;1.00;;;;;16.30;44.66;101890.69;5054839;28;45322;-75
2022/09/19 23:35:43;;;;;;;;;4.33;1.67;;;;;16.44;44.66;101917.03;5054210;28;61945;-68
2022/09/19 23:38:08;;;;;;;;;5.00;2.00;;;;;16.42;45.00;101919.69;5054877;28;45255;-72
2022/09/19 23:40:37;;;;;;;;;4.67;2.00;;;;;16.30;44.83;101895.13;5054759;28;45426;-75
2022/09/19 23:43:04;;;;;;;;;1.00;1.00;;;;;16.43;44.99;101921.50;5054717;28;45416;-72
2022/09/19 23:45:30;;;;;;;;;2.67;2.00;;;;;16.40;44.86;101925.06;5054349;28;45543;-74
2022/09/19 23:47:55;;;;;;;;;1.33;1.33;;;;;16.29;45.32;101901.44;5055140;28;45084;-74
2022/09/19 23:50:20;;;;;;;;;0.67;0.67;;;;;16.35;45.21;101918.66;5054124;28;51396;-71
2022/09/19 23:52:45;;;;;;;;;2.33;2.33;;;;;16.27;44.81;101908.56;5054496;28;45421;-72
2022/09/19 23:55:11;;;;;;;;;0.67;0.67;;;;;16.34;45.32;101924.91;5054403;28;45395;-76
2022/09/19 23:57:36;;;;;;;;;4.00;3.00;;;;;16.17;45.32;101896.69;5054475;28;50544;-68
